Patriarch — WBN3014 — position and weather

sailwx.info

Track history (hours):
 
Tides and Currents Weather Stations Pressure Air Temp Water Temp Dewpoint Dewpoint Depression Visibility Wind Speed Wind Dir Waves Ship Positions

Patriarch

Owner: CROWLEY PUERTO RICO SERVICES INC, Jacksonville, FL. More information available from US FCC via Universal Licensing System and Coast Guard Vessel Documentation Center.

Last reported at 2016-Nov-07 15:12 UTC. Time now 2016-Dec-04 12:21 UTC.
Position N 18°27' W 066°06'.
Warning: this ship's position is 26 days out of date.

Length 46 m; draft 4.6 m.

Type: Towing. MMSI: 366766940.

Date/timePositionNaut miles runAvg speedWind from/ knotsBaromVisibWave heightAir tempDewpointWater temp
2016-Nov-07 15:12N 18°27' W 066°06'2 2.8
2016-Nov-07 14:33N 18°28' W 066°08'  
2016-Nov-01 23:24N 38°33' W 074°50'39 9.5
2016-Nov-01 19:18N 39°08' W 075°14'43 6.4
2016-Nov-01 12:33N 39°51' W 075°16'11 1.2
2016-Nov-01 03:33N 39°59' W 075°05'0 0.0
2016-Nov-01 02:33N 39°59' W 075°05'0 0.0
2016-Nov-01 00:33N 39°59' W 075°05'0 0.0
2016-Oct-31 23:32N 39°59' W 075°05'0 0.0
2016-Oct-31 22:33N 39°59' W 075°05'0 0.0
2016-Oct-31 20:30N 39°59' W 075°05'0 0.0
2016-Oct-31 19:33N 39°59' W 075°05'0 0.0
2016-Oct-31 18:33N 39°59' W 075°05'0 0.0
2016-Oct-31 13:33N 39°59' W 075°05'0 0.0
2016-Oct-31 12:33N 39°59' W 075°05'0 0.0
2016-Oct-31 10:33N 39°59' W 075°05'0 0.0
2016-Oct-31 09:33N 39°59' W 075°05'0 0.0
2016-Oct-31 08:33N 39°59' W 075°05'1 1.1
2016-Oct-31 07:33N 39°58' W 075°07'16 3.9
2016-Oct-31 03:33N 39°49' W 075°23'  
Track history (hours):
 
Tides and Currents Weather Stations Pressure Air Temp Water Temp Dewpoint Dewpoint Depression Visibility Wind Speed Wind Dir Waves Ship Positions

Patriarch

Owner: CROWLEY PUERTO RICO SERVICES INC, Jacksonville, FL. More information available from US FCC via Universal Licensing System and Coast Guard Vessel Documentation Center.

Last reported at 2016-Nov-07 15:12 UTC. Time now 2016-Dec-04 12:21 UTC.
Position N 18°27' W 066°06'.
Warning: this ship's position is 26 days out of date.

Length 46 m; draft 4.6 m.

Type: Towing. MMSI: 366766940.

Date/timePositionNaut miles runAvg speedWind from/ knotsBaromVisibWave heightAir tempDewpointWater temp
2016-Nov-07 15:12N 18°27' W 066°06'2 2.8
2016-Nov-07 14:33N 18°28' W 066°08'  
2016-Nov-01 23:24N 38°33' W 074°50'39 9.5
2016-Nov-01 19:18N 39°08' W 075°14'43 6.4
2016-Nov-01 12:33N 39°51' W 075°16'11 1.2
2016-Nov-01 03:33N 39°59' W 075°05'0 0.0
2016-Nov-01 02:33N 39°59' W 075°05'0 0.0
2016-Nov-01 00:33N 39°59' W 075°05'0 0.0
2016-Oct-31 23:32N 39°59' W 075°05'0 0.0
2016-Oct-31 22:33N 39°59' W 075°05'0 0.0
2016-Oct-31 20:30N 39°59' W 075°05'0 0.0
2016-Oct-31 19:33N 39°59' W 075°05'0 0.0
2016-Oct-31 18:33N 39°59' W 075°05'0 0.0
2016-Oct-31 13:33N 39°59' W 075°05'0 0.0
2016-Oct-31 12:33N 39°59' W 075°05'0 0.0
2016-Oct-31 10:33N 39°59' W 075°05'0 0.0
2016-Oct-31 09:33N 39°59' W 075°05'0 0.0
2016-Oct-31 08:33N 39°59' W 075°05'1 1.1
2016-Oct-31 07:33N 39°58' W 075°07'16 3.9
2016-Oct-31 03:33N 39°49' W 075°23'  

Dump ship's entire track history